Hlavní strana
METAR-TAF:

METAR-TAF

Letiště :

Knoxville, Tennessee, Spojené státy americké

zeměpisná šířka: 35-57-50N, zeměpisná délka: 083-52-25W, výška: 254 m

Aktuální stav počasí

Zpráva byla vytvořena před 15 minutami, v 21:55 UTC
Bezvětří
Teplota 19°C
Vlhkost vzduchu 16%
Tlak 1022 hPa
Viditelnost: 16.1 km
Jasno

METAR: KDKX 252155Z AUTO 00000KT 10SM CLR 19/M07 A3017 RMK A01

Čas: 16:10 (22:10 UTC)


TAF: chybějící

Stav a předpovědi počasí z více než 4 000 letišť (zprávy METAR a TAF).

Červené a žluté tečky na mapě představují dostupné meteorologické stanice.

Když kurzor umístíte na tečku, zobrazí se název stanice.

Pak kliknutím zobrazíte stav a předpověď počasí.

Chcete-li změnit mapu, kliknutím na zelené tlačítko se znaménkem +mapu přiblížíte, kliknutím na zelené tlačítko se znaménkem – mapu oddálíte a kliknutím na zelené šipky přejdete na sousední mapy.


METAR-TAF: